Terminal Aerodrome Forecast
Issued by NWS

Home | Current Version | Previous Version | Text Only | Print | Product List | Glossary On
Versions: 1 2 3 4 5 6 7 8 9 10 11 12 13
000
FTUS45 KRIW 262320
TAFBPI
TAF
KBPI 262320Z 2700/2724 34007KT P6SM SCT060 BKN150
     FM270500 VRB05KT P6SM SCT030 BKN050
     FM271500 17005KT P6SM VCSH OVC020
     FM272100 15008KT 5SM -RASN SCT015 OVC018=

USA.gov is the U.S. government's official web portal to all federal, state and local government web resources and services.